createdAt,value
2018-12-26T00:00:03.450Z,38.15
2018-12-26T00:02:31.869Z,28.17
2018-12-26T00:05:00.292Z,32.63
2018-12-26T00:07:28.724Z,29.27
2018-12-26T00:09:57.157Z,32.88
2018-12-26T00:12:25.607Z,27.82
2018-12-26T00:14:54.024Z,29.95
2018-12-26T00:17:22.521Z,32.83
2018-12-26T00:19:51.063Z,34.53
2018-12-26T00:22:19.541Z,36.03
2018-12-26T00:24:47.964Z,32.40
2018-12-26T00:27:16.403Z,29.87
2018-12-26T00:29:44.844Z,29.42
2018-12-26T00:32:13.284Z,32.78
2018-12-26T00:34:41.693Z,33.53
2018-12-26T00:37:10.109Z,35.45
2018-12-26T00:39:38.890Z,26.05
2018-12-26T00:42:07.337Z,32.58
2018-12-26T00:44:35.842Z,34.65
2018-12-26T00:47:04.290Z,30.32
2018-12-26T00:49:33.028Z,30.88
2018-12-26T00:52:01.481Z,30.72
2018-12-26T00:54:29.974Z,30.20
2018-12-26T00:56:58.520Z,37.10
2018-12-26T00:59:26.931Z,31.65
2018-12-26T01:01:55.359Z,30.45
2018-12-26T01:04:23.818Z,33.53
2018-12-26T01:06:52.241Z,31.93
2018-12-26T01:09:21.000Z,33.98
2018-12-26T01:11:49.408Z,33.65
2018-12-26T01:14:17.858Z,29.40
2018-12-26T01:16:46.264Z,33.25
2018-12-26T01:19:14.684Z,32.75
2018-12-26T01:21:43.105Z,28.52
2018-12-26T01:24:11.542Z,33.70
2018-12-26T01:26:39.969Z,33.65
2018-12-26T01:29:08.629Z,35.65
2018-12-26T01:31:37.090Z,31.40
2018-12-26T01:34:05.492Z,30.35
2018-12-26T01:36:33.947Z,27.22
2018-12-26T01:39:02.356Z,24.18
2018-12-26T01:41:30.809Z,28.70
2018-12-26T01:43:59.204Z,21.10
2018-12-26T01:46:27.681Z,21.25
2018-12-26T01:48:56.076Z,19.52
2018-12-26T01:51:24.862Z,22.73
2018-12-26T01:53:53.265Z,17.60
2018-12-26T01:56:27.873Z,18.85
2018-12-26T01:58:51.865Z,22.15
2018-12-26T02:01:20.338Z,20.45
2018-12-26T02:03:48.790Z,21.23
2018-12-26T02:06:17.181Z,19.25
2018-12-26T02:08:45.622Z,17.23
2018-12-26T02:11:14.033Z,22.67
2018-12-26T02:13:42.459Z,21.05
2018-12-26T02:16:10.945Z,22.35
2018-12-26T02:18:39.380Z,23.87
2018-12-26T02:21:07.810Z,22.48
2018-12-26T02:23:36.234Z,20.17
2018-12-26T02:26:04.669Z,19.60
2018-12-26T02:28:33.093Z,19.00
2018-12-26T02:31:01.501Z,21.42
2018-12-26T02:33:29.960Z,24.47
2018-12-26T02:35:58.371Z,20.70
2018-12-26T02:38:26.815Z,24.70
2018-12-26T02:40:55.218Z,24.40
2018-12-26T02:43:23.674Z,21.12
2018-12-26T02:45:52.085Z,26.05
2018-12-26T02:48:20.512Z,26.42
2018-12-26T02:50:49.197Z,25.82
2018-12-26T02:53:17.641Z,22.20
2018-12-26T02:55:46.056Z,21.37
2018-12-26T02:58:14.488Z,21.97
2018-12-26T03:00:42.918Z,20.08
2018-12-26T03:03:11.681Z,21.57
2018-12-26T03:05:40.098Z,24.05
2018-12-26T03:08:08.522Z,23.70
2018-12-26T03:10:36.962Z,17.55
2018-12-26T03:13:05.377Z,26.55
2018-12-26T03:15:33.796Z,17.20
2018-12-26T03:18:02.221Z,21.70
2018-12-26T03:20:30.639Z,23.12
2018-12-26T03:22:59.052Z,22.05
2018-12-26T03:25:27.471Z,22.62
2018-12-26T03:27:55.924Z,23.95
2018-12-26T03:30:24.423Z,25.12
2018-12-26T03:32:52.867Z,25.45
2018-12-26T03:35:21.436Z,25.12
2018-12-26T03:37:49.836Z,27.50
2018-12-26T03:40:18.259Z,28.15
2018-12-26T03:42:46.673Z,24.20
2018-12-26T03:45:15.494Z,25.80
2018-12-26T03:47:44.550Z,26.97
2018-12-26T03:50:13.255Z,28.57
2018-12-26T03:52:41.937Z,25.25
2018-12-26T03:55:10.398Z,23.05
2018-12-26T03:57:38.870Z,34.30
2018-12-26T04:00:09.336Z,28.77
2018-12-26T04:02:37.825Z,28.50
2018-12-26T04:05:06.251Z,20.85
2018-12-26T04:07:34.897Z,28.32
2018-12-26T04:10:03.416Z,29.60
2018-12-26T04:12:32.051Z,23.47
2018-12-26T04:15:00.543Z,28.05
2018-12-26T04:17:29.029Z,25.80
2018-12-26T04:19:57.918Z,22.45
2018-12-26T04:22:27.093Z,22.07
2018-12-26T04:24:55.784Z,25.68
2018-12-26T04:27:24.225Z,33.55
2018-12-26T04:29:52.655Z,26.23
2018-12-26T04:32:21.063Z,22.35
2018-12-26T04:34:49.490Z,25.95
2018-12-26T04:37:17.968Z,27.73
2018-12-26T04:39:46.414Z,29.65
2018-12-26T04:42:14.864Z,27.32
2018-12-26T04:44:43.318Z,22.15
2018-12-26T04:47:11.820Z,24.92
2018-12-26T04:49:40.258Z,26.70
2018-12-26T04:52:08.719Z,24.25
2018-12-26T04:54:37.256Z,22.42
2018-12-26T04:57:05.701Z,21.85
2018-12-26T04:59:34.110Z,23.87
2018-12-26T05:02:02.529Z,24.10
2018-12-26T05:04:30.965Z,25.43
2018-12-26T05:06:59.400Z,21.80
2018-12-26T05:09:27.795Z,22.70
2018-12-26T05:11:56.231Z,24.10
2018-12-26T05:14:24.652Z,21.55
2018-12-26T05:16:53.068Z,23.52
2018-12-26T05:19:21.468Z,20.20
2018-12-26T05:21:49.897Z,23.95
2018-12-26T05:24:18.315Z,23.75
2018-12-26T05:26:46.767Z,24.32
2018-12-26T05:29:15.193Z,31.93
2018-12-26T05:31:43.626Z,26.70
2018-12-26T05:34:12.041Z,27.65
2018-12-26T05:36:40.465Z,29.45
2018-12-26T05:39:08.868Z,25.05
2018-12-26T05:41:37.621Z,27.25
2018-12-26T05:44:06.148Z,24.47
2018-12-26T05:46:34.597Z,20.88
2018-12-26T05:49:22.617Z,23.32
2018-12-26T05:51:51.074Z,22.50
2018-12-26T05:54:19.549Z,25.37
2018-12-26T05:56:47.997Z,24.63
2018-12-26T05:59:16.450Z,24.32
2018-12-26T06:01:44.962Z,22.52
2018-12-26T06:04:13.653Z,29.45
2018-12-26T06:06:42.765Z,23.12
2018-12-26T06:09:11.178Z,22.98
2018-12-26T06:11:40.587Z,23.85
2018-12-26T06:14:09.041Z,23.38
2018-12-26T06:16:37.511Z,24.50
2018-12-26T06:19:06.034Z,25.80
2018-12-26T06:21:34.498Z,25.23
2018-12-26T06:24:02.912Z,27.75
2018-12-26T06:26:31.344Z,21.70
2018-12-26T06:28:59.777Z,25.92
2018-12-26T06:31:28.215Z,24.37
2018-12-26T06:33:56.602Z,27.30
2018-12-26T06:36:24.997Z,24.72
2018-12-26T06:38:53.423Z,20.57
2018-12-26T06:41:21.840Z,22.10
2018-12-26T06:43:50.549Z,19.45
2018-12-26T06:46:18.949Z,25.72
2018-12-26T06:48:47.390Z,25.57
2018-12-26T06:51:15.868Z,30.20
2018-12-26T06:53:44.366Z,21.90
2018-12-26T06:56:13.137Z,27.20
2018-12-26T06:58:41.627Z,26.42
2018-12-26T07:01:10.032Z,23.50
2018-12-26T07:03:38.899Z,24.85
2018-12-26T07:06:07.379Z,27.70
2018-12-26T07:08:35.808Z,27.85
2018-12-26T07:11:04.221Z,27.90
2018-12-26T07:13:32.674Z,27.22
2018-12-26T07:16:01.086Z,26.82
2018-12-26T07:18:29.538Z,31.77
2018-12-26T07:20:57.940Z,28.20
2018-12-26T07:23:26.388Z,22.75
2018-12-26T07:25:54.803Z,29.87
2018-12-26T07:28:23.595Z,31.33
2018-12-26T07:30:52.052Z,33.05
2018-12-26T07:33:20.802Z,28.77
2018-12-26T07:35:49.313Z,31.62
2018-12-26T07:38:17.816Z,32.10
2018-12-26T07:40:46.259Z,22.50
2018-12-26T07:43:14.685Z,29.35
2018-12-26T07:45:43.142Z,25.02
2018-12-26T07:48:12.069Z,25.60
2018-12-26T07:50:40.507Z,27.73
2018-12-26T07:53:09.019Z,27.75
2018-12-26T07:55:37.469Z,26.27
2018-12-26T07:58:05.906Z,29.95
2018-12-26T08:00:34.422Z,30.75
2018-12-26T08:03:02.866Z,32.83
2018-12-26T08:05:31.302Z,28.15
2018-12-26T08:08:00.030Z,29.63
2018-12-26T08:10:30.046Z,25.72
2018-12-26T08:12:58.532Z,24.43
2018-12-26T08:15:26.954Z,28.02
2018-12-26T08:17:55.687Z,27.10
2018-12-26T08:20:24.128Z,31.85
2018-12-26T08:22:52.567Z,26.75
2018-12-26T08:25:20.978Z,29.30
2018-12-26T08:27:49.422Z,28.85
2018-12-26T08:30:17.836Z,25.75
2018-12-26T08:32:46.278Z,26.80
2018-12-26T08:35:14.906Z,29.05
2018-12-26T08:37:44.722Z,26.95
2018-12-26T08:40:13.166Z,32.17
2018-12-26T08:42:41.613Z,27.65
2018-12-26T08:45:10.113Z,34.45
2018-12-26T08:47:38.535Z,27.70
2018-12-26T08:50:08.625Z,25.02
2018-12-26T08:52:37.067Z,23.98
2018-12-26T08:55:05.525Z,31.35
2018-12-26T08:57:33.944Z,28.87
2018-12-26T09:00:02.458Z,24.12
2018-12-26T09:02:30.972Z,24.47
2018-12-26T09:04:59.462Z,26.80
2018-12-26T09:07:27.981Z,26.85
2018-12-26T09:09:56.553Z,31.50
2018-12-26T09:12:25.319Z,24.20
2018-12-26T09:14:53.730Z,29.67
2018-12-26T09:17:22.173Z,28.25
2018-12-26T09:19:50.609Z,28.17
2018-12-26T09:22:19.052Z,30.48
2018-12-26T09:24:47.485Z,22.32
2018-12-26T09:27:16.028Z,31.90
2018-12-26T09:29:44.448Z,27.65
2018-12-26T09:32:13.162Z,22.82
2018-12-26T09:34:41.633Z,25.35
2018-12-26T09:37:10.045Z,27.05
2018-12-26T09:39:38.502Z,33.50
2018-12-26T09:42:06.968Z,27.60
2018-12-26T09:44:35.433Z,29.45
2018-12-26T09:47:03.919Z,26.77
2018-12-26T09:49:32.333Z,32.90
2018-12-26T09:52:00.840Z,24.40
2018-12-26T09:54:29.289Z,28.35
2018-12-26T09:56:57.735Z,27.10
2018-12-26T09:59:26.274Z,26.30
2018-12-26T10:01:54.717Z,26.50
2018-12-26T10:04:23.146Z,25.32
2018-12-26T10:06:51.570Z,21.12
2018-12-26T10:09:20.154Z,25.90
2018-12-26T10:11:48.586Z,27.50
2018-12-26T10:14:16.990Z,25.23
2018-12-26T10:16:45.853Z,25.43
2018-12-26T10:19:14.326Z,32.83
2018-12-26T10:21:42.799Z,30.27
2018-12-26T10:24:11.234Z,25.70
2018-12-26T10:26:39.684Z,29.37
2018-12-26T10:29:08.172Z,24.60
2018-12-26T10:31:36.660Z,25.52
2018-12-26T10:34:05.086Z,30.27
2018-12-26T10:36:33.596Z,25.82
2018-12-26T10:39:02.666Z,25.02
2018-12-26T10:41:32.049Z,28.35
2018-12-26T10:44:00.448Z,24.80
2018-12-26T10:46:29.165Z,28.38
2018-12-26T10:48:57.582Z,24.27
2018-12-26T10:51:26.004Z,27.93
2018-12-26T10:53:54.415Z,26.23
2018-12-26T10:56:22.865Z,31.55
2018-12-26T10:58:51.349Z,27.10
2018-12-26T11:01:19.952Z,26.30
2018-12-26T11:03:48.727Z,38.85
2018-12-26T11:06:17.690Z,26.33
2018-12-26T11:08:46.183Z,27.15
2018-12-26T11:11:16.626Z,23.67
2018-12-26T11:13:45.136Z,25.80
2018-12-26T11:16:14.619Z,24.65
2018-12-26T11:18:43.487Z,24.07
2018-12-26T11:21:13.022Z,21.12
2018-12-26T11:23:44.516Z,25.37
2018-12-26T11:26:13.131Z,28.15
2018-12-26T11:28:41.993Z,24.90
2018-12-26T11:31:10.537Z,24.82
2018-12-26T11:33:39.211Z,23.20
2018-12-26T11:36:07.740Z,23.30
2018-12-26T11:38:37.298Z,26.20
2018-12-26T11:41:05.826Z,47.48
2018-12-26T11:43:35.119Z,33.53
2018-12-26T11:46:03.616Z,29.82
2018-12-26T11:48:35.283Z,17.35
2018-12-26T11:51:04.423Z,24.07
2018-12-26T11:53:33.044Z,25.15
2018-12-26T11:56:01.456Z,25.40
2018-12-26T11:58:30.168Z,26.48
2018-12-26T12:00:58.590Z,24.92
2018-12-26T12:03:27.002Z,26.07
2018-12-26T12:05:55.435Z,23.45
2018-12-26T12:08:23.916Z,21.60
2018-12-26T12:10:52.385Z,26.75
2018-12-26T12:13:20.820Z,26.70
2018-12-26T12:15:49.213Z,25.43
2018-12-26T12:18:23.681Z,24.63
2018-12-26T12:20:52.095Z,26.62
2018-12-26T12:23:20.768Z,27.82
2018-12-26T12:25:49.173Z,22.00
2018-12-26T12:28:17.584Z,23.50
2018-12-26T12:30:46.010Z,26.40
2018-12-26T12:33:14.424Z,25.45
2018-12-26T12:35:42.925Z,31.55
2018-12-26T12:38:11.394Z,23.57
2018-12-26T12:40:39.900Z,22.65
2018-12-26T12:43:08.423Z,21.48
2018-12-26T12:45:36.916Z,22.95
2018-12-26T12:48:05.359Z,25.27
2018-12-26T12:50:33.858Z,20.55
2018-12-26T12:53:02.252Z,24.45
2018-12-26T12:55:30.677Z,20.68
2018-12-26T12:57:59.132Z,21.27
2018-12-26T13:00:27.609Z,24.95
2018-12-26T13:03:00.354Z,24.18
2018-12-26T13:05:26.198Z,25.88
2018-12-26T13:07:54.630Z,18.98
2018-12-26T13:10:23.027Z,22.93
2018-12-26T13:12:51.485Z,22.37
2018-12-26T13:15:19.977Z,24.87
2018-12-26T13:17:48.402Z,29.92
2018-12-26T13:20:16.808Z,23.02
2018-12-26T13:22:45.273Z,20.75
2018-12-26T13:25:13.729Z,23.95
2018-12-26T13:27:42.125Z,28.20
2018-12-26T13:30:10.942Z,24.95
2018-12-26T13:32:39.737Z,23.75
2018-12-26T13:35:08.320Z,26.27
2018-12-26T13:37:43.209Z,25.55
2018-12-26T13:40:11.618Z,25.30
2018-12-26T13:42:40.145Z,26.62
2018-12-26T13:45:08.653Z,26.70
2018-12-26T13:47:37.058Z,22.32
2018-12-26T13:50:06.712Z,22.85
2018-12-26T13:52:35.110Z,25.30
2018-12-26T13:55:04.698Z,23.50
2018-12-26T13:57:33.100Z,24.47
2018-12-26T14:00:02.568Z,23.67
2018-12-26T14:02:31.284Z,21.23
2018-12-26T14:04:59.704Z,21.57
2018-12-26T14:07:28.121Z,22.82
2018-12-26T14:09:56.528Z,25.70
2018-12-26T14:12:24.944Z,24.07
2018-12-26T14:14:53.456Z,23.75
2018-12-26T14:17:22.235Z,26.20
2018-12-26T14:19:50.654Z,23.62
2018-12-26T14:22:19.053Z,27.02
2018-12-26T14:24:47.477Z,24.87
2018-12-26T14:27:15.908Z,26.60
2018-12-26T14:29:44.328Z,27.00
2018-12-26T14:32:12.833Z,28.00
2018-12-26T14:34:43.191Z,26.15
2018-12-26T14:37:11.388Z,21.07
2018-12-26T14:39:39.784Z,25.55
2018-12-26T14:42:08.198Z,25.77
2018-12-26T14:44:36.620Z,28.57
2018-12-26T14:47:05.068Z,23.75
2018-12-26T14:49:33.520Z,23.77
2018-12-26T14:52:01.962Z,21.45
2018-12-26T14:54:30.358Z,23.83
2018-12-26T14:56:58.774Z,26.30
2018-12-26T14:59:27.169Z,28.42
2018-12-26T15:01:55.573Z,28.50
2018-12-26T15:04:24.010Z,23.80
2018-12-26T15:06:52.445Z,30.57
2018-12-26T15:09:21.204Z,24.15
2018-12-26T15:11:49.651Z,24.98
2018-12-26T15:14:18.053Z,31.87
2018-12-26T15:16:46.472Z,33.30
2018-12-26T15:19:16.342Z,26.07
2018-12-26T15:21:44.784Z,26.12
2018-12-26T15:24:13.184Z,30.35
2018-12-26T15:26:41.629Z,26.75
2018-12-26T15:29:10.027Z,24.92
2018-12-26T15:31:38.429Z,25.97
2018-12-26T15:34:06.827Z,29.27
2018-12-26T15:36:35.264Z,27.50
2018-12-26T15:39:05.295Z,25.85
2018-12-26T15:41:35.355Z,26.17
2018-12-26T15:44:04.001Z,28.47
2018-12-26T15:46:32.397Z,24.18
2018-12-26T15:49:00.858Z,23.20
2018-12-26T15:51:30.050Z,29.35
2018-12-26T15:53:58.765Z,28.20
2018-12-26T15:56:27.204Z,27.85
2018-12-26T15:58:55.621Z,29.45
2018-12-26T16:01:24.012Z,26.30
2018-12-26T16:03:52.465Z,26.20
2018-12-26T16:06:20.851Z,29.63
2018-12-26T16:08:49.285Z,30.75
2018-12-26T16:11:17.679Z,26.30
2018-12-26T16:13:46.093Z,33.13
2018-12-26T16:16:14.508Z,31.90
2018-12-26T16:18:42.916Z,31.50
2018-12-26T16:21:11.369Z,31.02
2018-12-26T16:23:39.775Z,35.28
2018-12-26T16:26:08.512Z,37.25
2018-12-26T16:28:36.946Z,47.85
2018-12-26T16:31:05.342Z,39.08
2018-12-26T16:33:34.297Z,36.30
2018-12-26T16:36:02.725Z,37.00
2018-12-26T16:38:31.435Z,34.27
2018-12-26T16:40:59.867Z,32.60
2018-12-26T16:43:28.350Z,30.37
2018-12-26T16:45:56.752Z,31.82
2018-12-26T16:48:25.156Z,35.00
2018-12-26T16:50:53.555Z,26.97
2018-12-26T16:53:21.994Z,36.13
2018-12-26T16:55:50.403Z,39.92
2018-12-26T16:58:19.003Z,33.60
2018-12-26T17:00:54.822Z,28.05
2018-12-26T17:03:17.534Z,35.60
2018-12-26T17:05:45.951Z,30.20
2018-12-26T17:08:14.364Z,32.53
2018-12-26T17:10:43.049Z,31.65
2018-12-26T17:13:11.493Z,31.65
2018-12-26T17:15:39.895Z,34.15
2018-12-26T17:18:08.316Z,36.30
2018-12-26T17:20:36.746Z,35.80
2018-12-26T17:23:05.152Z,36.90
2018-12-26T17:25:33.585Z,33.13
2018-12-26T17:28:02.321Z,37.50
2018-12-26T17:30:30.808Z,34.13
2018-12-26T17:33:00.807Z,33.55
2018-12-26T17:35:29.520Z,31.80
2018-12-26T17:37:57.948Z,37.85
2018-12-26T17:40:26.341Z,39.80
2018-12-26T17:42:54.777Z,34.85
2018-12-26T17:45:23.441Z,38.28
2018-12-26T17:47:51.921Z,37.85
2018-12-26T17:50:40.171Z,43.70
2018-12-26T17:53:11.978Z,39.65
2018-12-26T17:56:00.248Z,34.75
2018-12-26T17:58:34.859Z,43.17
2018-12-26T18:01:30.280Z,52.13
2018-12-26T18:03:58.733Z,40.92
2018-12-26T18:06:27.216Z,41.77
2018-12-26T18:08:55.633Z,38.25
2018-12-26T18:11:24.075Z,40.78
2018-12-26T18:13:52.486Z,45.55
2018-12-26T18:16:20.887Z,37.70
2018-12-26T18:18:49.322Z,34.63
2018-12-26T18:21:17.732Z,46.68
2018-12-26T18:23:46.189Z,42.27
2018-12-26T18:26:14.623Z,46.42
2018-12-26T18:28:43.045Z,48.68
2018-12-26T18:31:11.554Z,39.33
2018-12-26T18:33:39.984Z,42.65
2018-12-26T18:36:08.390Z,41.50
2018-12-26T18:38:36.858Z,41.10
2018-12-26T18:41:05.264Z,40.38
2018-12-26T18:43:33.721Z,37.38
2018-12-26T18:46:02.306Z,39.83
2018-12-26T18:48:30.805Z,41.80
2018-12-26T18:50:59.222Z,42.88
2018-12-26T18:53:27.713Z,40.20
2018-12-26T18:55:56.409Z,48.33
2018-12-26T18:58:24.867Z,38.67
2018-12-26T19:00:53.336Z,47.17
2018-12-26T19:03:21.857Z,36.25
2018-12-26T19:05:50.261Z,35.60
2018-12-26T19:08:18.743Z,41.63
2018-12-26T19:10:47.222Z,30.23
2018-12-26T19:13:15.668Z,30.88
2018-12-26T19:15:44.088Z,32.33
2018-12-26T19:18:12.497Z,45.85
2018-12-26T19:20:40.941Z,31.40
2018-12-26T19:23:09.353Z,31.77
2018-12-26T19:25:37.825Z,31.23
2018-12-26T19:28:06.225Z,29.77
2018-12-26T19:30:34.974Z,35.30
2018-12-26T19:33:03.372Z,36.08
2018-12-26T19:35:31.831Z,37.25
2018-12-26T19:38:00.241Z,31.97
2018-12-26T19:40:28.711Z,34.60
2018-12-26T19:42:57.206Z,33.90
2018-12-26T19:45:25.662Z,36.73
2018-12-26T19:47:54.330Z,35.90
2018-12-26T19:50:22.788Z,31.48
2018-12-26T19:52:51.211Z,29.95
2018-12-26T19:55:19.650Z,27.65
2018-12-26T19:57:48.049Z,25.12
2018-12-26T20:00:16.508Z,29.32
2018-12-26T20:02:45.009Z,28.07
2018-12-26T20:05:13.454Z,29.63
2018-12-26T20:07:41.878Z,32.85
2018-12-26T20:10:11.085Z,27.40
2018-12-26T20:12:39.510Z,40.52
2018-12-26T20:15:08.033Z,32.15
2018-12-26T20:17:36.438Z,33.33
2018-12-26T20:20:07.028Z,24.27
2018-12-26T20:22:35.440Z,30.82
2018-12-26T20:25:03.990Z,28.62
2018-12-26T20:27:32.425Z,28.98
2018-12-26T20:30:00.927Z,26.82
2018-12-26T20:32:29.453Z,30.00
2018-12-26T20:34:57.954Z,31.55
2018-12-26T20:37:26.418Z,39.20
2018-12-26T20:39:55.130Z,35.50
2018-12-26T20:42:23.562Z,34.60
2018-12-26T20:44:52.022Z,29.87
2018-12-26T20:47:20.431Z,34.58
2018-12-26T20:49:48.892Z,33.40
2018-12-26T20:52:17.297Z,30.52
2018-12-26T20:54:45.734Z,31.33
2018-12-26T20:57:14.223Z,26.50
2018-12-26T20:59:42.882Z,34.08
2018-12-26T21:02:11.418Z,30.08
2018-12-26T21:04:39.815Z,27.17
2018-12-26T21:07:08.306Z,33.63
2018-12-26T21:09:36.705Z,27.02
2018-12-26T21:12:05.121Z,30.52
2018-12-26T21:14:33.564Z,30.80
2018-12-26T21:17:01.963Z,32.15
2018-12-26T21:19:30.750Z,32.67
2018-12-26T21:21:59.149Z,31.68
2018-12-26T21:24:27.568Z,26.73
2018-12-26T21:26:56.083Z,33.48
2018-12-26T21:29:24.492Z,29.95
2018-12-26T21:31:52.993Z,34.20
2018-12-26T21:34:21.416Z,28.70
2018-12-26T21:36:49.801Z,30.08
2018-12-26T21:39:18.232Z,26.17
2018-12-26T21:41:46.644Z,22.80
2018-12-26T21:44:15.056Z,27.22
2018-12-26T21:46:43.762Z,27.73
2018-12-26T21:49:12.195Z,30.97
2018-12-26T21:51:40.596Z,28.70
2018-12-26T21:54:09.022Z,29.07
2018-12-26T21:56:37.466Z,29.80
2018-12-26T21:59:05.864Z,28.30
2018-12-26T22:01:34.639Z,31.15
2018-12-26T22:04:03.346Z,27.95
2018-12-26T22:06:31.744Z,30.90
2018-12-26T22:09:00.189Z,27.17
2018-12-26T22:11:28.588Z,25.92
2018-12-26T22:13:56.996Z,25.80
2018-12-26T22:16:25.738Z,25.08
2018-12-26T22:18:54.153Z,27.65
2018-12-26T22:21:22.588Z,27.45
2018-12-26T22:23:50.989Z,26.00
2018-12-26T22:26:19.410Z,26.17
2018-12-26T22:28:47.858Z,36.40
2018-12-26T22:31:16.301Z,36.95
2018-12-26T22:33:44.706Z,42.17
2018-12-26T22:36:13.150Z,31.87
2018-12-26T22:38:41.589Z,29.50
2018-12-26T22:41:09.990Z,32.67
2018-12-26T22:43:38.729Z,30.40
2018-12-26T22:46:07.152Z,40.88
2018-12-26T22:48:35.556Z,43.78
2018-12-26T22:51:04.031Z,44.85
2018-12-26T22:53:32.464Z,47.38
2018-12-26T22:56:01.253Z,39.08
2018-12-26T22:58:29.653Z,33.25
2018-12-26T23:00:58.113Z,31.77
2018-12-26T23:03:26.541Z,34.63
2018-12-26T23:05:54.960Z,36.42
2018-12-26T23:08:23.408Z,41.83
2018-12-26T23:10:51.841Z,37.60
2018-12-26T23:13:20.279Z,37.48
2018-12-26T23:15:48.719Z,26.93
2018-12-26T23:18:17.118Z,37.63
2018-12-26T23:20:45.550Z,30.08
2018-12-26T23:23:13.998Z,30.88
2018-12-26T23:25:42.750Z,27.48
2018-12-26T23:28:11.167Z,31.75
2018-12-26T23:30:39.573Z,30.85
2018-12-26T23:33:07.976Z,34.25
2018-12-26T23:35:36.406Z,39.53
2018-12-26T23:38:04.809Z,39.10
2018-12-26T23:40:33.225Z,31.93
2018-12-26T23:43:01.625Z,32.50
2018-12-26T23:45:30.044Z,26.50
2018-12-26T23:47:58.775Z,27.27
2018-12-26T23:50:27.177Z,32.65
2018-12-26T23:52:55.611Z,30.23
2018-12-26T23:55:43.406Z,28.83
2018-12-26T23:58:11.894Z,25.40
